createdAt,value
2023-01-03T00:01:40.993Z,1.90
2023-01-03T00:04:07.797Z,2.00
2023-01-03T00:06:40.577Z,2.13
2023-01-03T00:09:09.747Z,2.30
2023-01-03T00:11:56.326Z,2.87
2023-01-03T00:14:28.798Z,2.33
2023-01-03T00:16:57.438Z,2.07
2023-01-03T00:19:26.318Z,2.10
2023-01-03T00:21:52.896Z,2.17
2023-01-03T00:24:19.554Z,2.57
2023-01-03T00:26:46.611Z,2.60
2023-01-03T00:29:13.852Z,2.60
2023-01-03T00:31:40.762Z,2.40
2023-01-03T00:34:07.726Z,2.70
2023-01-03T00:36:35.603Z,2.00
2023-01-03T00:39:02.539Z,2.20
2023-01-03T00:41:31.488Z,2.23
2023-01-03T00:44:00.768Z,2.30
2023-01-03T00:46:27.564Z,2.17
2023-01-03T00:48:54.273Z,2.00
2023-01-03T00:51:31.363Z,2.23
2023-01-03T00:53:59.797Z,1.93
2023-01-03T00:56:29.119Z,2.00
2023-01-03T00:58:56.190Z,2.10
2023-01-03T01:01:26.279Z,1.90
2023-01-03T01:04:01.553Z,2.00
2023-01-03T01:06:32.118Z,2.07
2023-01-03T01:09:00.856Z,2.00
2023-01-03T01:11:29.203Z,2.00
2023-01-03T01:13:56.381Z,1.93
2023-01-03T01:16:26.378Z,1.80
2023-01-03T01:18:53.845Z,1.70
2023-01-03T01:21:26.790Z,1.50
2023-01-03T01:23:53.759Z,1.50
2023-01-03T01:26:23.058Z,1.40
2023-01-03T01:28:51.026Z,1.40
2023-01-03T01:31:20.072Z,1.80
2023-01-03T01:33:46.724Z,1.33
2023-01-03T01:36:19.040Z,1.37
2023-01-03T01:38:47.315Z,1.50
2023-01-03T01:41:15.805Z,1.47
2023-01-03T01:44:16.439Z,1.50
2023-01-03T01:46:43.557Z,1.50
2023-01-03T01:49:18.488Z,1.40
2023-01-03T01:51:44.958Z,1.30
2023-01-03T01:54:11.963Z,1.83
2023-01-03T01:56:46.148Z,1.60
2023-01-03T01:59:13.377Z,1.37
2023-01-03T02:01:42.812Z,1.43
2023-01-03T02:04:15.793Z,1.30
2023-01-03T02:06:43.333Z,1.40
2023-01-03T02:09:09.812Z,1.57
2023-01-03T02:11:50.833Z,1.40
2023-01-03T02:14:26.307Z,1.50
2023-01-03T02:17:17.518Z,1.47
2023-01-03T02:19:49.998Z,1.43
2023-01-03T02:22:50.383Z,1.50
2023-01-03T02:25:36.553Z,1.10
2023-01-03T02:28:12.038Z,1.70
2023-01-03T02:31:10.924Z,1.20
2023-01-03T02:33:39.166Z,1.67
2023-01-03T02:36:22.562Z,1.10
2023-01-03T02:39:06.402Z,1.40
2023-01-03T02:41:46.474Z,1.30
2023-01-03T02:44:27.168Z,1.40
2023-01-03T02:47:12.048Z,1.10
2023-01-03T02:49:44.563Z,1.40
2023-01-03T02:52:14.829Z,1.30
2023-01-03T02:54:49.754Z,1.33
2023-01-03T02:57:20.191Z,1.33
2023-01-03T03:00:02.028Z,1.20
2023-01-03T03:02:35.494Z,1.40
2023-01-03T03:05:08.614Z,1.30
2023-01-03T03:07:39.133Z,1.30
2023-01-03T03:10:26.520Z,1.40
2023-01-03T03:13:14.068Z,1.53
2023-01-03T03:16:18.967Z,1.43
2023-01-03T03:18:59.155Z,1.33
2023-01-03T03:21:54.480Z,1.73
2023-01-03T03:24:47.649Z,1.67
2023-01-03T03:27:35.434Z,1.30
2023-01-03T03:30:03.912Z,1.43
2023-01-03T03:32:34.184Z,1.30
2023-01-03T03:35:03.487Z,1.47
2023-01-03T03:37:34.050Z,1.80
2023-01-03T03:40:19.052Z,1.30
2023-01-03T03:43:20.627Z,1.40
2023-01-03T03:46:10.294Z,1.60
2023-01-03T03:49:02.569Z,1.40
2023-01-03T03:51:33.996Z,1.60
2023-01-03T03:54:04.257Z,1.43
2023-01-03T03:56:32.744Z,1.77
2023-01-03T03:59:06.007Z,1.40
2023-01-03T04:01:35.971Z,2.00
2023-01-03T04:04:08.492Z,1.70
2023-01-03T04:06:47.875Z,1.80
2023-01-03T04:09:14.514Z,1.50
2023-01-03T04:11:41.255Z,2.87
2023-01-03T04:14:07.849Z,2.50
2023-01-03T04:16:34.428Z,2.90
2023-01-03T04:19:00.881Z,2.10
2023-01-03T04:21:27.348Z,2.77
2023-01-03T04:23:53.727Z,2.67
2023-01-03T04:26:20.138Z,2.10
2023-01-03T04:28:46.622Z,2.00
2023-01-03T04:31:13.179Z,2.43
2023-01-03T04:33:39.555Z,1.97
2023-01-03T04:36:06.408Z,1.60
2023-01-03T04:38:32.862Z,1.90
2023-01-03T04:41:07.306Z,2.00
2023-01-03T04:43:52.312Z,1.70
2023-01-03T04:46:19.103Z,1.60
2023-01-03T04:48:45.677Z,1.70
2023-01-03T04:51:12.540Z,2.37
2023-01-03T04:53:38.947Z,1.80
2023-01-03T04:56:05.883Z,1.97
2023-01-03T04:58:32.293Z,2.10
2023-01-03T05:01:04.237Z,2.00
2023-01-03T05:03:31.340Z,1.90
2023-01-03T05:06:02.511Z,2.07
2023-01-03T05:08:29.075Z,2.00
2023-01-03T05:10:55.559Z,1.80
2023-01-03T05:13:22.362Z,2.33
2023-01-03T05:15:49.066Z,2.03
2023-01-03T05:18:15.801Z,2.10
2023-01-03T05:21:00.990Z,2.03
2023-01-03T05:23:45.714Z,2.00
2023-01-03T05:26:15.533Z,2.17
2023-01-03T05:28:45.111Z,1.87
2023-01-03T05:31:11.897Z,1.70
2023-01-03T05:33:39.579Z,2.00
2023-01-03T05:36:06.972Z,2.00
2023-01-03T05:38:33.419Z,1.97
2023-01-03T05:40:59.892Z,1.90
2023-01-03T05:43:26.560Z,2.20
2023-01-03T05:45:53.506Z,2.10
2023-01-03T05:48:21.527Z,2.37
2023-01-03T05:50:49.886Z,2.27
2023-01-03T05:53:17.028Z,2.20
2023-01-03T05:55:43.584Z,2.00
2023-01-03T05:58:11.626Z,2.30
2023-01-03T06:00:38.025Z,2.33
2023-01-03T06:03:04.568Z,2.30
2023-01-03T06:05:31.054Z,1.93
2023-01-03T06:08:00.869Z,1.80
2023-01-03T06:10:27.496Z,2.40
2023-01-03T06:12:54.112Z,2.13
2023-01-03T06:15:20.597Z,2.10
2023-01-03T06:17:57.676Z,2.00
2023-01-03T06:20:28.789Z,2.00
2023-01-03T06:22:57.613Z,2.03
2023-01-03T06:25:24.097Z,2.03
2023-01-03T06:27:50.654Z,2.00
2023-01-03T06:30:17.190Z,2.47
2023-01-03T06:32:44.412Z,1.83
2023-01-03T06:35:11.567Z,2.77
2023-01-03T06:37:38.010Z,2.23
2023-01-03T06:40:05.376Z,2.40
2023-01-03T06:42:43.047Z,2.07
2023-01-03T06:45:30.213Z,2.30
2023-01-03T06:48:15.607Z,2.20
2023-01-03T06:51:01.375Z,2.17
2023-01-03T06:53:37.244Z,2.50
2023-01-03T06:56:05.104Z,2.20
2023-01-03T06:58:32.229Z,2.03
2023-01-03T07:01:02.482Z,2.47
2023-01-03T07:03:29.687Z,2.27
2023-01-03T07:05:56.075Z,2.23
2023-01-03T07:08:22.483Z,2.07
2023-01-03T07:10:48.939Z,2.50
2023-01-03T07:13:34.033Z,2.57
2023-01-03T07:16:00.567Z,2.50
2023-01-03T07:18:27.253Z,2.30
2023-01-03T07:20:54.194Z,2.40
2023-01-03T07:23:20.728Z,2.77
2023-01-03T07:25:47.649Z,2.90
2023-01-03T07:28:16.177Z,2.80
2023-01-03T07:30:44.898Z,2.70
2023-01-03T07:33:12.955Z,3.07
2023-01-03T07:35:39.751Z,3.00
2023-01-03T07:38:10.283Z,2.90
2023-01-03T07:40:36.703Z,2.80
2023-01-03T07:43:22.031Z,3.47
2023-01-03T07:45:49.010Z,2.80
2023-01-03T07:48:15.726Z,3.00
2023-01-03T07:50:42.400Z,2.90
2023-01-03T07:53:09.880Z,3.20
2023-01-03T07:55:37.410Z,3.03
2023-01-03T07:58:04.506Z,2.93
2023-01-03T08:00:31.303Z,3.10
2023-01-03T08:02:57.839Z,2.80
2023-01-03T08:05:25.362Z,3.50
2023-01-03T08:07:53.027Z,3.00
2023-01-03T08:10:39.722Z,2.77
2023-01-03T08:13:18.991Z,3.37
2023-01-03T08:15:46.469Z,3.07
2023-01-03T08:18:14.131Z,3.10
2023-01-03T08:20:41.039Z,3.47
2023-01-03T08:23:07.857Z,3.00
2023-01-03T08:25:34.316Z,2.77
2023-01-03T08:28:01.549Z,3.47
2023-01-03T08:30:29.065Z,3.23
2023-01-03T08:32:58.487Z,3.10
2023-01-03T08:35:28.063Z,2.90
2023-01-03T08:37:54.790Z,2.80
2023-01-03T08:40:21.332Z,2.60
2023-01-03T08:42:48.205Z,2.70
2023-01-03T08:45:16.776Z,2.87
2023-01-03T08:47:44.094Z,2.50
2023-01-03T08:50:12.086Z,2.33
2023-01-03T08:52:38.599Z,2.80
2023-01-03T08:55:05.632Z,2.57
2023-01-03T08:57:33.012Z,2.10
2023-01-03T08:59:59.444Z,2.40
2023-01-03T09:02:26.127Z,2.10
2023-01-03T09:04:52.698Z,2.30
2023-01-03T09:07:19.059Z,2.03
2023-01-03T09:09:45.493Z,2.83
2023-01-03T09:12:11.884Z,2.40
2023-01-03T09:14:38.308Z,2.70
2023-01-03T09:17:04.724Z,2.40
2023-01-03T09:19:31.133Z,2.30
2023-01-03T09:21:57.537Z,3.40
2023-01-03T09:24:23.959Z,2.60
2023-01-03T09:26:54.505Z,2.20
2023-01-03T09:29:21.697Z,2.17
2023-01-03T09:31:48.243Z,2.00
2023-01-03T09:34:14.720Z,2.43
2023-01-03T09:36:41.226Z,2.20
2023-01-03T09:39:07.693Z,2.10
2023-01-03T09:41:34.450Z,2.23
2023-01-03T09:44:04.665Z,2.37
2023-01-03T09:46:32.696Z,2.40
2023-01-03T09:49:00.436Z,2.30
2023-01-03T09:51:45.188Z,2.73
2023-01-03T09:54:36.870Z,2.33
2023-01-03T09:57:28.715Z,2.47
2023-01-03T10:00:13.893Z,2.00
2023-01-03T10:03:26.178Z,2.57
2023-01-03T10:06:00.247Z,2.37
2023-01-03T10:08:47.072Z,2.50
2023-01-03T10:11:51.089Z,2.60
2023-01-03T10:14:51.556Z,2.70
2023-01-03T10:17:35.716Z,2.97
2023-01-03T10:20:23.281Z,2.47
2023-01-03T10:22:55.905Z,2.40
2023-01-03T10:25:23.969Z,2.53
2023-01-03T10:27:56.950Z,2.53
2023-01-03T10:31:16.115Z,2.83
2023-01-03T10:33:47.809Z,2.47
2023-01-03T10:36:19.603Z,3.20
2023-01-03T10:38:52.617Z,2.83
2023-01-03T10:41:46.317Z,2.70
2023-01-03T10:44:27.997Z,3.10
2023-01-03T10:47:07.872Z,2.87
2023-01-03T10:49:34.527Z,3.07
2023-01-03T10:52:16.688Z,2.50
2023-01-03T10:54:43.579Z,2.87
2023-01-03T10:57:43.731Z,2.90
2023-01-03T11:00:31.167Z,3.10
2023-01-03T11:03:10.383Z,3.50
2023-01-03T11:05:37.923Z,3.30
2023-01-03T11:08:14.869Z,3.67
2023-01-03T11:10:57.227Z,3.63
2023-01-03T11:13:25.558Z,3.17
2023-01-03T11:15:57.681Z,4.40
2023-01-03T11:18:27.704Z,3.77
2023-01-03T11:21:16.467Z,3.80
2023-01-03T11:23:58.111Z,4.10
2023-01-03T11:26:33.410Z,4.40
2023-01-03T11:29:31.064Z,3.70
2023-01-03T11:32:28.825Z,3.40
2023-01-03T11:38:24.818Z,3.20
2023-01-03T11:41:08.252Z,3.90
2023-01-03T11:43:46.726Z,3.73
2023-01-03T11:46:25.026Z,3.50
2023-01-03T11:49:28.911Z,3.13
2023-01-03T11:52:30.137Z,4.53
2023-01-03T11:55:18.293Z,3.70
2023-01-03T11:57:50.768Z,3.57
2023-01-03T12:00:24.461Z,3.43
2023-01-03T12:03:09.450Z,4.30
2023-01-03T12:05:42.829Z,2.63
2023-01-03T12:08:27.859Z,3.60
2023-01-03T12:11:12.242Z,3.60
2023-01-03T12:13:47.027Z,2.30
2023-01-03T12:16:13.610Z,2.43
2023-01-03T12:19:12.003Z,3.03
2023-01-03T12:21:43.714Z,2.67
2023-01-03T12:24:12.830Z,2.50
2023-01-03T12:26:42.553Z,2.67
2023-01-03T12:29:24.704Z,2.87
2023-01-03T12:31:56.962Z,2.60
2023-01-03T12:34:42.576Z,3.00
2023-01-03T12:37:17.229Z,3.10
2023-01-03T12:40:09.777Z,4.73
2023-01-03T12:42:45.783Z,3.40
2023-01-03T12:45:34.583Z,2.53
2023-01-03T12:48:21.485Z,2.97
2023-01-03T12:50:50.153Z,2.80
2023-01-03T12:53:29.769Z,2.87
2023-01-03T12:56:14.828Z,3.17
2023-01-03T12:58:59.501Z,3.27
2023-01-03T13:01:44.494Z,2.43
2023-01-03T13:04:28.360Z,2.30
2023-01-03T13:06:59.357Z,2.90
2023-01-03T13:09:32.015Z,2.57
2023-01-03T13:12:13.714Z,2.73
2023-01-03T13:14:56.945Z,2.80
2023-01-03T13:17:28.191Z,2.50
2023-01-03T13:20:34.041Z,2.53
2023-01-03T13:23:22.006Z,2.90
2023-01-03T13:26:04.865Z,3.20
2023-01-03T13:28:36.896Z,3.10
2023-01-03T13:31:18.828Z,2.87
2023-01-03T13:33:55.558Z,2.57
2023-01-03T13:36:23.673Z,2.47
2023-01-03T13:38:51.486Z,2.80
2023-01-03T13:41:37.797Z,3.17
2023-01-03T13:44:24.385Z,2.90
2023-01-03T13:46:52.091Z,3.10
2023-01-03T13:49:25.401Z,3.23
2023-01-03T13:51:57.279Z,2.67
2023-01-03T13:54:54.618Z,2.50
2023-01-03T13:57:30.962Z,2.40
2023-01-03T14:00:00.024Z,2.43
2023-01-03T14:02:50.174Z,2.50
2023-01-03T14:05:48.443Z,2.90
2023-01-03T14:08:17.860Z,2.53
2023-01-03T14:11:23.499Z,2.63
2023-01-03T14:13:53.683Z,2.60
2023-01-03T14:16:45.495Z,2.63
2023-01-03T14:19:21.418Z,2.27
2023-01-03T14:21:54.348Z,2.93
2023-01-03T14:24:34.157Z,2.57
2023-01-03T14:27:11.509Z,2.60
2023-01-03T14:29:43.701Z,2.70
2023-01-03T14:32:22.938Z,2.60
2023-01-03T14:34:50.441Z,2.90
2023-01-03T14:37:20.314Z,2.83
2023-01-03T14:39:57.624Z,2.40
2023-01-03T14:42:24.718Z,2.77
2023-01-03T14:45:06.275Z,2.60
2023-01-03T14:47:38.886Z,2.83
2023-01-03T14:50:07.851Z,2.90
2023-01-03T14:52:35.543Z,3.50
2023-01-03T14:55:09.215Z,3.27
2023-01-03T14:57:40.258Z,2.90
2023-01-03T15:00:11.891Z,3.33
2023-01-03T15:02:40.831Z,3.20
2023-01-03T15:05:23.180Z,4.00
2023-01-03T15:07:49.700Z,3.37
2023-01-03T15:10:45.958Z,3.60
2023-01-03T15:13:18.169Z,3.33
2023-01-03T15:15:44.883Z,3.70
2023-01-03T15:18:17.212Z,3.40
2023-01-03T15:20:50.181Z,3.10
2023-01-03T15:23:42.144Z,3.40
2023-01-03T15:26:21.112Z,3.70
2023-01-03T15:29:16.005Z,3.63
2023-01-03T15:31:54.791Z,4.50
2023-01-03T15:34:35.422Z,4.03
2023-01-03T15:37:18.261Z,4.10
2023-01-03T15:39:48.107Z,4.23
2023-01-03T15:42:48.930Z,4.27
2023-01-03T15:45:25.849Z,4.17
2023-01-03T15:47:56.346Z,4.80
2023-01-03T15:50:27.036Z,4.53
2023-01-03T15:52:53.501Z,4.80
2023-01-03T15:55:20.107Z,4.50
2023-01-03T15:57:51.077Z,4.63
2023-01-03T16:00:21.081Z,4.83
2023-01-03T16:02:47.843Z,5.17
2023-01-03T16:05:21.616Z,5.50
2023-01-03T16:07:48.849Z,5.43
2023-01-03T16:10:15.364Z,5.23
2023-01-03T16:12:42.548Z,5.17
2023-01-03T16:15:19.155Z,5.43
2023-01-03T16:17:45.885Z,5.90
2023-01-03T16:20:17.191Z,5.57
2023-01-03T16:22:57.621Z,6.03
2023-01-03T16:25:26.689Z,5.63
2023-01-03T16:27:53.243Z,5.70
2023-01-03T16:30:19.659Z,6.03
2023-01-03T16:32:46.158Z,6.07
2023-01-03T16:35:17.859Z,6.33
2023-01-03T16:37:44.533Z,6.37
2023-01-03T16:40:16.659Z,6.20
2023-01-03T16:42:43.229Z,6.40
2023-01-03T16:45:10.364Z,6.00
2023-01-03T16:47:37.287Z,6.43
2023-01-03T16:50:14.437Z,7.13
2023-01-03T16:52:46.479Z,8.20
2023-01-03T16:55:26.799Z,9.67
2023-01-03T16:57:55.131Z,8.73
2023-01-03T17:00:26.988Z,7.77
2023-01-03T17:02:59.126Z,7.83
2023-01-03T17:05:32.885Z,8.87
2023-01-03T17:08:21.875Z,11.10
2023-01-03T17:10:51.669Z,12.23
2023-01-03T17:13:27.718Z,10.47
2023-01-03T17:15:55.626Z,9.00
2023-01-03T17:18:25.608Z,8.83
2023-01-03T17:21:14.621Z,9.33
2023-01-03T17:23:42.783Z,8.80
2023-01-03T17:26:15.000Z,9.47
2023-01-03T17:28:42.943Z,9.10
2023-01-03T17:31:22.304Z,11.13
2023-01-03T17:33:49.532Z,12.83
2023-01-03T17:36:29.901Z,11.53
2023-01-03T17:39:00.033Z,11.53
2023-01-03T17:41:27.093Z,10.77
2023-01-03T17:43:54.467Z,9.97
2023-01-03T17:46:45.592Z,9.10
2023-01-03T17:49:26.389Z,9.27
2023-01-03T17:51:58.861Z,8.73
2023-01-03T17:54:36.625Z,8.87
2023-01-03T17:57:04.196Z,8.53
2023-01-03T17:59:31.081Z,9.73
2023-01-03T18:01:58.392Z,9.53
2023-01-03T18:04:43.985Z,9.70
2023-01-03T18:07:17.996Z,9.47
2023-01-03T18:09:44.557Z,10.17
2023-01-03T18:12:18.826Z,9.00
2023-01-03T18:14:46.136Z,9.23
2023-01-03T18:17:33.931Z,9.37
2023-01-03T18:20:01.059Z,9.67
2023-01-03T18:22:28.168Z,10.27
2023-01-03T18:24:56.689Z,10.33
2023-01-03T18:27:25.779Z,10.27
2023-01-03T18:29:52.430Z,10.27
2023-01-03T18:32:35.152Z,9.27
2023-01-03T18:35:02.531Z,9.87
2023-01-03T18:37:34.777Z,9.47
2023-01-03T18:40:02.652Z,9.43
2023-01-03T18:42:48.179Z,10.13
2023-01-03T18:45:15.212Z,10.00
2023-01-03T18:47:41.837Z,10.07
2023-01-03T18:50:16.892Z,10.60
2023-01-03T18:52:43.360Z,11.23
2023-01-03T18:55:17.032Z,13.00
2023-01-03T18:57:45.366Z,11.83
2023-01-03T19:00:34.249Z,10.90
2023-01-03T19:03:00.982Z,9.97
2023-01-03T19:05:27.625Z,9.93
2023-01-03T19:07:54.168Z,10.47
2023-01-03T19:10:26.828Z,10.10
2023-01-03T19:12:55.612Z,10.40
2023-01-03T19:15:25.726Z,10.20
2023-01-03T19:17:52.483Z,11.57
2023-01-03T19:20:24.753Z,10.27
2023-01-03T19:22:53.609Z,10.00
2023-01-03T19:25:24.794Z,10.23
2023-01-03T19:27:53.357Z,10.90
2023-01-03T19:30:37.581Z,9.83
2023-01-03T19:33:06.069Z,11.17
2023-01-03T19:35:33.899Z,10.90
2023-01-03T19:38:00.431Z,11.47
2023-01-03T19:40:30.777Z,12.47
2023-01-03T19:42:58.909Z,11.97
2023-01-03T19:45:32.709Z,12.17
2023-01-03T19:48:01.456Z,12.17
2023-01-03T19:50:29.156Z,15.47
2023-01-03T19:52:56.111Z,16.33
2023-01-03T19:55:27.090Z,17.93
2023-01-03T19:57:53.768Z,17.87
2023-01-03T20:00:27.142Z,16.43
2023-01-03T20:02:58.027Z,15.93
2023-01-03T20:05:30.170Z,14.63
2023-01-03T20:07:56.596Z,13.90
2023-01-03T20:10:25.985Z,13.03
2023-01-03T20:12:55.414Z,12.73
2023-01-03T20:15:25.648Z,12.30
2023-01-03T20:17:52.992Z,12.73
2023-01-03T20:20:23.457Z,12.47
2023-01-03T20:23:05.008Z,11.60
2023-01-03T20:25:33.890Z,11.80
2023-01-03T20:28:01.743Z,10.93
2023-01-03T20:30:30.535Z,11.70
2023-01-03T20:32:57.393Z,11.40
2023-01-03T20:36:07.525Z,10.43
2023-01-03T20:38:12.726Z,11.37
2023-01-03T20:40:39.438Z,10.47
2023-01-03T20:43:06.214Z,10.27
2023-01-03T20:45:33.214Z,10.37
2023-01-03T20:48:00.341Z,9.97
2023-01-03T20:50:28.592Z,9.13
2023-01-03T20:52:57.185Z,8.83
2023-01-03T20:55:27.724Z,9.47
2023-01-03T20:57:54.222Z,8.97
2023-01-03T21:00:25.706Z,14.20
2023-01-03T21:02:52.978Z,12.43
2023-01-03T21:05:19.807Z,9.77
2023-01-03T21:08:05.613Z,9.00
2023-01-03T21:10:37.402Z,8.57
2023-01-03T21:13:04.520Z,8.83
2023-01-03T21:15:31.713Z,8.10
2023-01-03T21:17:58.414Z,7.97
2023-01-03T21:20:27.323Z,8.87
2023-01-03T21:22:53.899Z,7.90
2023-01-03T21:25:23.456Z,7.80
2023-01-03T21:27:50.420Z,8.30
2023-01-03T21:30:19.521Z,8.67
2023-01-03T21:32:46.231Z,8.73
2023-01-03T21:35:15.689Z,10.53
2023-01-03T21:37:42.337Z,9.10
2023-01-03T21:40:28.943Z,8.70
2023-01-03T21:43:04.239Z,8.37
2023-01-03T21:45:56.503Z,7.83
2023-01-03T21:48:23.142Z,8.13
2023-01-03T21:50:52.269Z,8.20
2023-01-03T21:53:21.927Z,8.43
2023-01-03T21:55:49.379Z,7.80
2023-01-03T21:58:18.052Z,7.80
2023-01-03T22:00:45.272Z,7.87
2023-01-03T22:03:31.930Z,8.10
2023-01-03T22:06:13.816Z,8.07
2023-01-03T22:08:41.045Z,7.77
2023-01-03T22:11:08.154Z,6.70
2023-01-03T22:13:35.844Z,6.87
2023-01-03T22:16:05.185Z,6.73
2023-01-03T22:18:32.214Z,7.03
2023-01-03T22:21:03.349Z,6.43
2023-01-03T22:23:30.845Z,7.20
2023-01-03T22:26:05.132Z,7.60
2023-01-03T22:28:36.867Z,8.30
2023-01-03T22:31:10.745Z,6.77
2023-01-03T22:33:37.247Z,6.93
2023-01-03T22:36:04.083Z,7.03
2023-01-03T22:38:30.586Z,6.30
2023-01-03T22:40:56.990Z,6.70
2023-01-03T22:43:23.556Z,6.60
2023-01-03T22:45:50.049Z,6.67
2023-01-03T22:48:16.596Z,5.57
2023-01-03T22:50:43.028Z,5.47
2023-01-03T22:53:09.470Z,5.70
2023-01-03T22:55:41.371Z,6.00
2023-01-03T22:58:07.839Z,5.93
2023-01-03T23:00:34.258Z,5.40
2023-01-03T23:03:01.782Z,5.30
2023-01-03T23:05:28.352Z,5.93
2023-01-03T23:07:54.792Z,5.73
2023-01-03T23:10:21.224Z,6.00
2023-01-03T23:13:00.164Z,5.50
2023-01-03T23:15:29.007Z,5.83
2023-01-03T23:17:58.322Z,5.20
2023-01-03T23:20:30.909Z,5.70
2023-01-03T23:23:02.643Z,5.80
2023-01-03T23:25:30.906Z,5.20
2023-01-03T23:27:58.111Z,5.47
2023-01-03T23:30:24.769Z,5.83
2023-01-03T23:32:51.257Z,5.17
2023-01-03T23:35:18.541Z,5.33
2023-01-03T23:37:48.285Z,5.83
2023-01-03T23:40:15.188Z,5.30
2023-01-03T23:42:41.700Z,5.40
2023-01-03T23:45:08.566Z,4.80
2023-01-03T23:47:34.992Z,5.40
2023-01-03T23:50:01.388Z,5.30
2023-01-03T23:52:27.790Z,5.20
2023-01-03T23:55:00.569Z,5.57
2023-01-03T23:57:28.906Z,5.83
2023-01-03T23:59:55.359Z,5.47
